Stations météo

réclame
Mon MeteoGroup
Bealach, Grande-Bretagne (3039): Température de l'air & dewpoint: 11.12.2017 00:00:00 - 17.12.2017 00:00:00 (GMT)Bealach, Grande-Bretagne (3039): Vitesse du vent & gusts: 11.12.2017 00:00:00 - 17.12.2017 00:00:00 (GMT)Bealach, Grande-Bretagne (3039): Direction du vent: 11.12.2017 00:00:00 - 17.12.2017 00:00:00 (GMT)
Date & Time tt [°C] td [°C] ff [km/h] ff [knt] fx [km/h] fx [knt] dd
17.12.2017 00:00:00 1,1 1,1 59 32 70 38 S
16.12.2017 23:00:00 0,1 0,1 46 25 57 31 S
16.12.2017 22:00:00 0,0 0,0 39 21 52 28 S
16.12.2017 21:00:00 -0,4 -0,4 39 21 46 25 SSW
16.12.2017 20:00:00 -0,7 -0,7 22 12 - - S
16.12.2017 19:00:00 -1,1 -1,1 18 10 - - SSW
16.12.2017 18:00:00 -1,1 -1,1 18 10 - - WSW
16.12.2017 17:00:00 -1,6 -1,6 13 7 - - W
16.12.2017 16:00:00 -1,4 -1,4 18 10 - - WNW
16.12.2017 15:00:00 -1,2 -1,2 21 11 - - W
16.12.2017 14:00:00 -1,2 -1,2 16 9 - - W
16.12.2017 13:00:00 -1,1 -1,1 16 9 - - W
16.12.2017 12:00:00 -1,2 -1,2 26 14 - - WSW
16.12.2017 11:00:00 -1,4 -1,4 18 10 - - W
16.12.2017 10:00:00 -1,5 -1,5 13 7 - - WNW
16.12.2017 09:00:00 -1,9 -1,9 15 8 - - NNW
16.12.2017 08:00:00 -2,0 -2,0 18 10 - - NNW
16.12.2017 07:00:00 -2,3 -2,3 24 13 - - N
16.12.2017 06:00:00 -2,4 -2,4 22 12 - - N
16.12.2017 05:00:00 -2,3 -2,3 26 14 - - NNW
16.12.2017 04:00:00 -2,0 -2,0 28 15 - - NNW
16.12.2017 03:00:00 -2,1 -2,1 24 13 - - NNW
16.12.2017 02:00:00 -2,2 -2,2 24 13 - - NNW
16.12.2017 01:00:00 -2,2 -2,2 26 14 - - NNW
16.12.2017 00:00:00 -2,2 -2,2 28 15 - - NNW
15.12.2017 23:00:00 -2,2 -2,2 29 16 - - NNW
15.12.2017 22:00:00 -2,0 -2,0 41 22 48 26 NNW
15.12.2017 21:00:00 -1,9 -1,9 35 19 55 30 NNW
15.12.2017 20:00:00 -1,9 -1,9 42 23 65 35 NNW
15.12.2017 19:00:00 -2,4 -2,4 44 24 63 34 N
15.12.2017 18:00:00 -2,3 -2,3 39 21 81 44 N
15.12.2017 17:00:00 -1,7 -1,7 37 20 70 38 N
15.12.2017 16:00:00 -2,1 -2,1 59 32 87 47 N
15.12.2017 15:00:00 -2,0 -2,0 52 28 85 46 N
15.12.2017 14:00:00 -1,7 -1,7 72 39 87 47 NNW
15.12.2017 13:00:00 -1,5 -1,5 46 25 74 40 N
15.12.2017 12:00:00 -1,6 -1,6 48 26 70 38 N
15.12.2017 11:00:00 -1,4 -1,4 39 21 68 37 N
15.12.2017 10:00:00 -1,2 -1,5 46 25 81 44 NNE
15.12.2017 09:00:00 -1,0 -1,6 59 32 80 43 NNE
15.12.2017 08:00:00 -1,9 -2,3 61 33 81 44 NNE
15.12.2017 07:00:00 -0,8 -1,7 48 26 83 45 N
15.12.2017 06:00:00 -0,6 -1,7 57 31 96 52 N
15.12.2017 05:00:00 -0,6 -1,6 68 37 107 58 NNE
15.12.2017 04:00:00 -0,2 -1,1 72 39 111 60 NNE
15.12.2017 03:00:00 -0,5 -0,5 70 38 113 61 N
15.12.2017 02:00:00 -0,4 -0,4 39 21 102 55 NNE
15.12.2017 01:00:00 -0,1 -0,1 67 36 102 55 NNE
15.12.2017 00:00:00 -0,8 -0,8 37 20 54 29 NNE
14.12.2017 23:00:00 -1,5 -1,9 26 14 63 34 NNE
14.12.2017 22:00:00 -1,6 -1,9 28 15 52 28 ENE
14.12.2017 21:00:00 -1,5 -1,5 31 17 76 41 NE
14.12.2017 20:00:00 -1,3 -1,3 48 26 81 44 NE
14.12.2017 19:00:00 -1,1 -1,1 52 28 96 52 NNE
14.12.2017 18:00:00 -0,2 -0,2 72 39 98 53 NNE
14.12.2017 17:00:00 -0,1 -0,1 54 29 87 47 N
14.12.2017 16:00:00 -0,5 -0,5 74 40 89 48 NNW
14.12.2017 15:00:00 -0,8 -0,8 48 26 63 34 NW
14.12.2017 14:00:00 -1,4 -1,4 39 21 54 29 NNW
14.12.2017 13:00:00 -2,0 -2,0 31 17 - - W
14.12.2017 12:00:00 -2,1 -2,1 29 16 - - WSW
14.12.2017 11:00:00 -2,3 -2,3 24 13 - - WNW
14.12.2017 10:00:00 -2,7 -2,7 16 9 - - WNW
14.12.2017 09:00:00 -3,2 -3,2 18 10 - - NNW
14.12.2017 08:00:00 -3,5 -3,5 11 6 - - NNW
14.12.2017 07:00:00 -3,8 -3,8 2 1 - - NE
14.12.2017 06:00:00 -2,8 -2,8 11 6 - - SSW
14.12.2017 05:00:00 -2,0 -2,0 26 14 - - S
14.12.2017 04:00:00 -2,5 -2,5 16 9 - - W
14.12.2017 03:00:00 -2,0 -2,0 28 15 50 27 W
14.12.2017 02:00:00 -2,0 -2,0 39 21 52 28 W
14.12.2017 01:00:00 -2,6 -2,6 34 18 63 34 WNW
14.12.2017 00:00:00 -2,6 -2,6 46 25 70 38 WNW
13.12.2017 23:00:00 -1,9 -1,9 44 24 61 33 W
13.12.2017 22:00:00 -2,1 -2,1 29 16 57 31 W
13.12.2017 21:00:00 -2,4 -2,4 34 18 48 26 W
13.12.2017 20:00:00 -2,5 -2,5 22 12 - - WSW
13.12.2017 19:00:00 -2,9 -2,9 31 17 57 31 W
13.12.2017 18:00:00 -2,6 -2,6 42 23 52 28 W
13.12.2017 17:00:00 -2,5 -2,5 41 22 48 26 W
13.12.2017 16:00:00 -2,6 -2,6 42 23 61 33 W
13.12.2017 15:00:00 -3,2 -3,2 42 23 55 30 W
13.12.2017 14:00:00 -2,4 -2,4 37 20 - - W
13.12.2017 13:00:00 -2,9 -2,9 41 22 55 30 W
13.12.2017 12:00:00 -1,8 -1,8 44 24 61 33 W
13.12.2017 11:00:00 -1,9 -1,9 54 29 63 34 W
13.12.2017 10:00:00 -1,6 -1,6 42 23 61 33 W
13.12.2017 09:00:00 -1,4 -1,4 42 23 70 38 W
13.12.2017 08:00:00 -1,2 -1,2 54 29 72 39 W
13.12.2017 07:00:00 -0,3 -0,3 44 24 80 43 W
13.12.2017 06:00:00 0,1 0,1 61 33 109 59 SSW
13.12.2017 05:00:00 0,1 0,1 67 36 81 44 S
13.12.2017 04:00:00 0,0 0,0 63 34 74 40 SSW
13.12.2017 03:00:00 -0,6 -0,6 46 25 61 33 SSW
13.12.2017 02:00:00 -0,7 -0,7 50 27 61 33 WSW
13.12.2017 01:00:00 -0,6 -0,6 42 23 57 31 WSW
13.12.2017 00:00:00 -0,3 -0,3 42 23 54 29 W
12.12.2017 23:00:00 0,0 0,0 48 26 57 31 W
12.12.2017 22:00:00 0,0 0,0 44 24 63 34 W
12.12.2017 21:00:00 0,0 0,0 39 21 55 30 W
12.12.2017 20:00:00 -0,2 -0,2 48 26 63 34 WNW
12.12.2017 19:00:00 -0,9 -0,9 44 24 80 43 S
12.12.2017 18:00:00 -1,0 -1,0 44 24 85 46 S
12.12.2017 17:00:00 -0,9 -0,9 52 28 94 51 S
12.12.2017 16:00:00 -0,3 -0,3 41 22 87 47 S
12.12.2017 15:00:00 -0,3 -0,3 31 17 72 39 S
12.12.2017 14:00:00 -0,5 -0,5 31 17 68 37 S
12.12.2017 13:00:00 -0,7 -0,7 31 17 50 27 S
12.12.2017 12:00:00 -0,9 -0,9 34 18 55 30 S
12.12.2017 11:00:00 -0,9 -0,9 41 22 54 29 S
12.12.2017 10:00:00 -0,5 -0,5 42 23 50 27 S
12.12.2017 09:00:00 -0,6 -0,6 39 21 - - SSW
12.12.2017 08:00:00 -1,6 -1,6 26 14 - - SSW
12.12.2017 07:00:00 -1,7 -1,7 22 12 - - SW
12.12.2017 06:00:00 -1,2 -1,2 18 10 - - WSW
12.12.2017 05:00:00 -1,1 -1,1 16 9 - - W
12.12.2017 04:00:00 -1,1 -1,1 13 7 - - W
12.12.2017 03:00:00 -1,0 -1,0 13 7 - - NW
12.12.2017 02:00:00 -2,2 -2,3 21 11 - - WNW
12.12.2017 01:00:00 -0,7 -0,7 16 9 - - WNW
12.12.2017 00:00:00 -1,5 -1,5 18 10 - - NW
11.12.2017 23:00:00 -1,8 -2,0 16 9 - - N
11.12.2017 22:00:00 -1,6 -1,6 22 12 - - NNE
11.12.2017 21:00:00 -1,4 -1,4 29 16 46 25 NNE
11.12.2017 20:00:00 -1,3 -1,3 24 13 - - NNE
11.12.2017 19:00:00 -1,6 -1,6 21 11 - - N
11.12.2017 18:00:00 -1,0 -1,0 16 9 - - N
11.12.2017 17:00:00 -0,8 -1,1 22 12 48 26 NNE
11.12.2017 16:00:00 -1,3 -1,5 31 17 50 27 NNE
11.12.2017 15:00:00 -1,2 -1,7 28 15 54 29 NE
11.12.2017 14:00:00 -0,9 -1,6 28 15 63 34 NE
11.12.2017 13:00:00 -0,8 -0,8 42 23 65 35 NE
11.12.2017 12:00:00 -1,6 -1,6 31 17 50 27 NE
11.12.2017 11:00:00 -1,3 -1,3 26 14 48 26 NNE
11.12.2017 10:00:00 -1,6 -1,6 34 18 61 33 NNE
11.12.2017 09:00:00 -1,4 -1,4 39 21 61 33 NNE
11.12.2017 08:00:00 -0,9 -0,9 28 15 63 34 NNE
11.12.2017 07:00:00 -1,4 -1,4 31 17 59 32 NNE
11.12.2017 06:00:00 -1,1 -1,1 31 17 67 36 NE
11.12.2017 05:00:00 -1,3 -1,3 39 21 67 36 NNE
11.12.2017 04:00:00 -1,4 -1,4 26 14 - - NNE
11.12.2017 03:00:00 -1,9 -1,9 22 12 - - N
11.12.2017 02:00:00 -1,8 -1,8 28 15 - - NNE
11.12.2017 01:00:00 -2,2 -2,2 26 14 55 30 NNE
11.12.2017 00:00:00 -2,1 -2,1 34 18 55 30 NNE

tt = Température de l'air
td = dewpoint
ff = Vitesse du vent
fx = gusts
dd = Direction du vent

stations d'obs. à proximité